»·PEaware :: TPX230 KBFL-KLAS

TPX230 :: KBFL-KLAS

FLIGHT INFORMATION

Flight Status: Arrived
Operator: ATP Experience
More flights by this operator :: More flights under this callsign
Pilot: Dave P. (45)
Aircraft: BOEING 737-600
(B736)
More flights by this aircraft type
Origin: KBFL Meadows
United States
Destination: KLAS McCarran Intl
United States
More flights between these airports :: More routes between these airports
Route: +EHF V197 PMD DAG MISEN KEPEC6
File this flight plan on PilotEdge
Remarks: PBN / A1B1C1D1S1S2 DOF / 180826 REG / N736PM OPR / TPX PER / C RMK / TCAS SIMBRIEF
Altitude:
(Current/Filed)
29,000ft
Speed:
(Current/Filed)
453kts
Departed: 26-Aug-18 03:18 PM
Arrived: 26-Aug-18 04:08 PM
Distance/Time
Traveled:
195nm/0:49
Distance/Time
To Go:
Arrived

Flight Plot

Page will automatically refresh every two minutes.

Flight plan parsing failed; only flown route is shown


Map Options




Map Legend


Flown Route
Filed Route
Departure Airport
Arrival Airport
Navaid (VOR, NDB)
Fix

Horizontal Profiles

Position Reports

Time Latitude Longitude Heading Altitude Ground
Speed
26-Aug-18 14:44 35.429147 -119.044877 45 514ft 0kts
26-Aug-18 14:45 35.429147 -119.044877 45 514ft 0kts
26-Aug-18 14:46 35.429147 -119.044877 45 514ft 0kts
26-Aug-18 14:47 35.429147 -119.044877 45 514ft 0kts
26-Aug-18 14:48 35.429147 -119.044877 45 514ft 0kts
26-Aug-18 14:49 35.429147 -119.044877 45 514ft 0kts
26-Aug-18 14:50 35.429147 -119.044877 45 514ft 0kts
26-Aug-18 14:51 35.429147 -119.044877 45 514ft 0kts
26-Aug-18 14:52 35.429147 -119.044877 45 514ft 0kts
26-Aug-18 14:53 35.429147 -119.044877 45 514ft 0kts
26-Aug-18 14:54 35.429147 -119.044877 45 514ft 0kts
26-Aug-18 14:55 35.429147 -119.044877 45 514ft 0kts
26-Aug-18 14:56 35.429147 -119.044877 45 514ft 0kts
26-Aug-18 14:57 35.429147 -119.044877 45 514ft 0kts
26-Aug-18 14:58 35.429147 -119.044877 45 514ft 0kts
26-Aug-18 14:59 35.429147 -119.044877 45 514ft 0kts
26-Aug-18 15:00 35.429147 -119.044877 45 514ft 0kts
26-Aug-18 15:01 35.429147 -119.044877 45 514ft 0kts
26-Aug-18 15:02 35.429147 -119.044877 45 514ft 0kts
26-Aug-18 15:03 35.429147 -119.044877 45 514ft 0kts
26-Aug-18 15:04 35.429147 -119.044877 45 514ft 0kts
26-Aug-18 15:05 35.429147 -119.044877 45 514ft 0kts
26-Aug-18 15:06 35.429147 -119.044877 45 514ft 0kts
26-Aug-18 15:07 35.429147 -119.044877 45 514ft 0kts
26-Aug-18 15:08 35.429147 -119.044877 45 514ft 0kts
26-Aug-18 15:09 35.429147 -119.044877 45 514ft 0kts
26-Aug-18 15:10 35.428937 -119.045236 74 514ft 2kts
26-Aug-18 15:11 35.428974 -119.045666 114 514ft 0kts
26-Aug-18 15:12 35.428974 -119.045666 114 514ft 0kts
26-Aug-18 15:13 35.428973 -119.045665 114 514ft 0kts
26-Aug-18 15:14 35.428505 -119.045119 134 514ft 11kts
26-Aug-18 15:15 35.427162 -119.044843 187 514ft 0kts
26-Aug-18 15:16 35.426683 -119.044926 193 514ft 14kts
26-Aug-18 15:17 35.426017 -119.045660 229 514ft 5kts
26-Aug-18 15:18 35.426358 -119.047124 314 514ft 0kts
26-Aug-18 15:19 35.431357 -119.053155 315 515ft 106kts
26-Aug-18 15:20 35.459022 -119.087930 312 2192ft 151kts
26-Aug-18 15:21 35.495381 -119.134976 312 3327ft 228kts
26-Aug-18 15:22 35.545290 -119.199621 312 5562ft 277kts
26-Aug-18 15:23 35.552200 -119.281420 216 8592ft 288kts
26-Aug-18 15:24 35.478971 -119.254967 142 11329ft 327kts
26-Aug-18 15:25 35.402107 -119.176862 142 13645ft 374kts
26-Aug-18 15:26 35.324939 -119.086892 131 16797ft 393kts
26-Aug-18 15:27 35.254322 -118.981645 131 19689ft 408kts
26-Aug-18 15:28 35.180807 -118.872414 131 22313ft 425kts
26-Aug-18 15:29 35.104065 -118.758506 131 24499ft 438kts
26-Aug-18 15:30 35.025352 -118.641625 132 26584ft 454kts
26-Aug-18 15:31 34.943624 -118.520978 132 28430ft 466kts
26-Aug-18 15:32 34.860970 -118.399438 133 29092ft 464kts
26-Aug-18 15:33 34.778645 -118.278435 133 29041ft 465kts
26-Aug-18 15:34 34.695722 -118.157472 133 29005ft 464kts
26-Aug-18 15:35 34.644157 -118.015573 91 29015ft 484kts
26-Aug-18 15:36 34.681302 -117.857799 70 29004ft 490kts
26-Aug-18 15:37 34.727319 -117.701905 71 28980ft 489kts
26-Aug-18 15:38 34.772956 -117.546399 70 28988ft 488kts
26-Aug-18 15:39 34.818874 -117.390826 71 28993ft 488kts
26-Aug-18 15:40 34.864220 -117.235437 71 28990ft 488kts
26-Aug-18 15:41 34.909310 -117.079855 71 28959ft 488kts
26-Aug-18 15:42 34.954349 -116.923543 71 28936ft 488kts
26-Aug-18 15:43 34.999052 -116.767659 71 28927ft 488kts
26-Aug-18 15:44 35.043486 -116.612384 71 27904ft 480kts
26-Aug-18 15:45 35.086637 -116.459694 70 24972ft 466kts
26-Aug-18 15:46 35.156673 -116.333808 45 22910ft 442kts
26-Aug-18 15:47 35.242463 -116.227557 44 21257ft 434kts
26-Aug-18 15:48 35.325727 -116.123032 45 19655ft 422kts
26-Aug-18 15:49 35.406531 -116.021521 45 18098ft 411kts
26-Aug-18 15:50 35.485358 -115.922166 45 16648ft 401kts
26-Aug-18 15:51 35.562069 -115.824795 45 15178ft 393kts
26-Aug-18 15:52 35.634331 -115.732602 45 13785ft 356kts
26-Aug-18 15:53 35.699836 -115.648980 45 12994ft 322kts
26-Aug-18 15:54 35.766886 -115.578502 15 12989ft 321kts
26-Aug-18 15:55 35.855108 -115.569492 359 12996ft 318kts
26-Aug-18 15:56 35.943676 -115.564710 5 12987ft 319kts
26-Aug-18 15:57 35.997945 -115.488616 79 12492ft 311kts
26-Aug-18 15:58 36.025909 -115.389538 75 11113ft 294kts
26-Aug-18 15:59 36.025494 -115.293688 98 10018ft 262kts
26-Aug-18 16:00 36.018828 -115.206195 98 9001ft 252kts
26-Aug-18 16:01 36.013393 -115.125204 97 8295ft 222kts
26-Aug-18 16:02 36.009375 -115.049265 92 6863ft 218kts
26-Aug-18 16:03 36.011138 -114.978486 91 5990ft 182kts
26-Aug-18 16:04 36.041671 -114.938914 4 4494ft 188kts
26-Aug-18 16:05 36.072073 -114.976913 273 4468ft 176kts
26-Aug-18 16:06 36.073723 -115.036750 266 3596ft 168kts
26-Aug-18 16:07 36.073687 -115.088795 267 2780ft 132kts
26-Aug-18 16:08 36.073660 -115.132331 268 2190ft 118kts
26-Aug-18 16:09 36.074607 -115.145504 295 2189ft 10kts
26-Aug-18 16:10 36.077603 -115.146636 340 2189ft 10kts
26-Aug-18 16:11 36.078256 -115.143101 91 2189ft 16kts
26-Aug-18 16:12 36.079155 -115.139257 47 2189ft 4kts
26-Aug-18 16:13 36.080308 -115.139117 316 2189ft 0kts
26-Aug-18 16:14 36.080308 -115.139117 316 2189ft 0kts
26-Aug-18 16:15 36.080308 -115.139117 316 2189ft 0kts
26-Aug-18 16:16 36.080308 -115.139117 316 2189ft 0kts
26-Aug-18 16:17 36.080308 -115.139117 316 2189ft 0kts
26-Aug-18 16:18 36.080308 -115.139117 316 2189ft 0kts

Navigation Log

Ident Type
Flight plan parsing failed, navigation log unavailable